sensor_id;sensor_type;location;lat;lon;timestamp;P1;durP1;ratioP1;P2;durP2;ratioP2
18653;SDS011;9456;47.824;16.228;2023-01-28T00:00:52;30.10;;;18.33;;
18653;SDS011;9456;47.824;16.228;2023-01-28T00:03:21;28.67;;;18.10;;
18653;SDS011;9456;47.824;16.228;2023-01-28T00:05:51;32.50;;;18.50;;
18653;SDS011;9456;47.824;16.228;2023-01-28T00:08:20;30.57;;;18.60;;
18653;SDS011;9456;47.824;16.228;2023-01-28T00:10:49;28.73;;;18.57;;
18653;SDS011;9456;47.824;16.228;2023-01-28T00:13:19;29.37;;;17.77;;
18653;SDS011;9456;47.824;16.228;2023-01-28T00:15:54;30.33;;;18.40;;
18653;SDS011;9456;47.824;16.228;2023-01-28T00:18:23;28.80;;;17.40;;
18653;SDS011;9456;47.824;16.228;2023-01-28T00:20:56;29.27;;;18.50;;
18653;SDS011;9456;47.824;16.228;2023-01-28T00:23:25;31.90;;;19.37;;
18653;SDS011;9456;47.824;16.228;2023-01-28T00:26:04;31.87;;;18.63;;
18653;SDS011;9456;47.824;16.228;2023-01-28T00:28:31;30.07;;;18.43;;
18653;SDS011;9456;47.824;16.228;2023-01-28T00:31:05;30.07;;;19.23;;
18653;SDS011;9456;47.824;16.228;2023-01-28T00:33:35;29.47;;;17.87;;
18653;SDS011;9456;47.824;16.228;2023-01-28T00:36:04;30.67;;;19.40;;
18653;SDS011;9456;47.824;16.228;2023-01-28T00:38:35;29.03;;;18.33;;
18653;SDS011;9456;47.824;16.228;2023-01-28T00:41:07;26.00;;;17.37;;
18653;SDS011;9456;47.824;16.228;2023-01-28T00:43:36;28.27;;;17.77;;
18653;SDS011;9456;47.824;16.228;2023-01-28T00:46:06;32.53;;;18.83;;
18653;SDS011;9456;47.824;16.228;2023-01-28T00:48:34;33.50;;;20.13;;
18653;SDS011;9456;47.824;16.228;2023-01-28T00:51:04;27.37;;;18.63;;
18653;SDS011;9456;47.824;16.228;2023-01-28T00:53:34;28.77;;;18.00;;
18653;SDS011;9456;47.824;16.228;2023-01-28T00:56:05;28.50;;;17.27;;
18653;SDS011;9456;47.824;16.228;2023-01-28T00:58:34;29.10;;;19.17;;
18653;SDS011;9456;47.824;16.228;2023-01-28T01:01:07;30.00;;;18.17;;
18653;SDS011;9456;47.824;16.228;2023-01-28T01:03:36;30.43;;;18.17;;
18653;SDS011;9456;47.824;16.228;2023-01-28T01:06:06;28.80;;;17.70;;
18653;SDS011;9456;47.824;16.228;2023-01-28T01:08:35;26.33;;;16.73;;
18653;SDS011;9456;47.824;16.228;2023-01-28T01:11:06;26.77;;;17.20;;
18653;SDS011;9456;47.824;16.228;2023-01-28T01:13:35;28.43;;;17.73;;
18653;SDS011;9456;47.824;16.228;2023-01-28T01:16:05;28.47;;;17.70;;
18653;SDS011;9456;47.824;16.228;2023-01-28T01:18:33;28.47;;;17.90;;
18653;SDS011;9456;47.824;16.228;2023-01-28T01:21:02;28.97;;;18.43;;
18653;SDS011;9456;47.824;16.228;2023-01-28T01:23:32;28.17;;;17.97;;
18653;SDS011;9456;47.824;16.228;2023-01-28T01:26:01;27.50;;;17.07;;
18653;SDS011;9456;47.824;16.228;2023-01-28T01:28:33;28.20;;;18.27;;
18653;SDS011;9456;47.824;16.228;2023-01-28T01:31:02;28.73;;;17.73;;
18653;SDS011;9456;47.824;16.228;2023-01-28T01:33:31;31.50;;;18.23;;
18653;SDS011;9456;47.824;16.228;2023-01-28T01:36:00;26.50;;;17.70;;
18653;SDS011;9456;47.824;16.228;2023-01-28T01:38:29;27.90;;;17.70;;
18653;SDS011;9456;47.824;16.228;2023-01-28T01:40:58;29.53;;;18.10;;
18653;SDS011;9456;47.824;16.228;2023-01-28T01:43:44;30.17;;;17.23;;
18653;SDS011;9456;47.824;16.228;2023-01-28T01:46:16;30.23;;;17.70;;
18653;SDS011;9456;47.824;16.228;2023-01-28T01:48:45;25.13;;;16.73;;
18653;SDS011;9456;47.824;16.228;2023-01-28T01:51:15;30.27;;;16.90;;
18653;SDS011;9456;47.824;16.228;2023-01-28T01:53:54;26.60;;;16.80;;
18653;SDS011;9456;47.824;16.228;2023-01-28T01:56:23;27.53;;;17.50;;
18653;SDS011;9456;47.824;16.228;2023-01-28T01:58:52;27.50;;;18.27;;
18653;SDS011;9456;47.824;16.228;2023-01-28T02:01:23;29.77;;;17.60;;
18653;SDS011;9456;47.824;16.228;2023-01-28T02:03:52;29.90;;;18.20;;
18653;SDS011;9456;47.824;16.228;2023-01-28T02:06:21;27.97;;;17.70;;
18653;SDS011;9456;47.824;16.228;2023-01-28T02:08:52;28.03;;;17.07;;
18653;SDS011;9456;47.824;16.228;2023-01-28T02:11:21;31.50;;;17.97;;
18653;SDS011;9456;47.824;16.228;2023-01-28T02:13:51;29.57;;;18.27;;
18653;SDS011;9456;47.824;16.228;2023-01-28T02:16:19;28.83;;;16.77;;
18653;SDS011;9456;47.824;16.228;2023-01-28T02:18:48;33.53;;;18.37;;
18653;SDS011;9456;47.824;16.228;2023-01-28T02:21:27;28.70;;;18.03;;
18653;SDS011;9456;47.824;16.228;2023-01-28T02:24:26;27.83;;;18.27;;
18653;SDS011;9456;47.824;16.228;2023-01-28T02:27:27;29.63;;;18.40;;
18653;SDS011;9456;47.824;16.228;2023-01-28T02:30:02;26.63;;;16.50;;
18653;SDS011;9456;47.824;16.228;2023-01-28T02:32:32;30.73;;;17.40;;
18653;SDS011;9456;47.824;16.228;2023-01-28T02:35:03;27.00;;;16.20;;
18653;SDS011;9456;47.824;16.228;2023-01-28T02:37:33;26.43;;;17.37;;
18653;SDS011;9456;47.824;16.228;2023-01-28T02:40:03;30.53;;;18.23;;
18653;SDS011;9456;47.824;16.228;2023-01-28T02:42:33;29.83;;;18.60;;
18653;SDS011;9456;47.824;16.228;2023-01-28T02:45:01;29.87;;;18.63;;
18653;SDS011;9456;47.824;16.228;2023-01-28T02:47:30;28.87;;;18.67;;
18653;SDS011;9456;47.824;16.228;2023-01-28T02:50:17;32.60;;;19.23;;
18653;SDS011;9456;47.824;16.228;2023-01-28T02:52:48;30.53;;;19.93;;
18653;SDS011;9456;47.824;16.228;2023-01-28T02:55:39;30.40;;;19.60;;
18653;SDS011;9456;47.824;16.228;2023-01-28T02:58:08;31.73;;;19.57;;
18653;SDS011;9456;47.824;16.228;2023-01-28T03:00:40;30.57;;;18.47;;
18653;SDS011;9456;47.824;16.228;2023-01-28T03:03:12;31.43;;;18.83;;
18653;SDS011;9456;47.824;16.228;2023-01-28T03:05:41;34.93;;;21.67;;
18653;SDS011;9456;47.824;16.228;2023-01-28T03:08:10;38.47;;;21.20;;
18653;SDS011;9456;47.824;16.228;2023-01-28T03:10:58;34.03;;;20.63;;
18653;SDS011;9456;47.824;16.228;2023-01-28T03:13:45;31.47;;;18.60;;
18653;SDS011;9456;47.824;16.228;2023-01-28T03:16:32;31.70;;;18.93;;
18653;SDS011;9456;47.824;16.228;2023-01-28T03:19:18;30.77;;;19.33;;
18653;SDS011;9456;47.824;16.228;2023-01-28T03:22:05;28.37;;;18.43;;
18653;SDS011;9456;47.824;16.228;2023-01-28T03:24:53;31.90;;;19.90;;
18653;SDS011;9456;47.824;16.228;2023-01-28T03:27:39;34.67;;;20.17;;
18653;SDS011;9456;47.824;16.228;2023-01-28T03:30:26;34.13;;;18.87;;
18653;SDS011;9456;47.824;16.228;2023-01-28T03:33:16;30.37;;;18.20;;
18653;SDS011;9456;47.824;16.228;2023-01-28T03:36:03;34.33;;;19.47;;
18653;SDS011;9456;47.824;16.228;2023-01-28T03:38:51;30.93;;;19.13;;
18653;SDS011;9456;47.824;16.228;2023-01-28T03:41:20;32.13;;;19.90;;
18653;SDS011;9456;47.824;16.228;2023-01-28T03:43:50;32.07;;;20.87;;
18653;SDS011;9456;47.824;16.228;2023-01-28T03:46:19;33.27;;;20.70;;
18653;SDS011;9456;47.824;16.228;2023-01-28T03:48:48;33.30;;;21.33;;
18653;SDS011;9456;47.824;16.228;2023-01-28T03:51:17;32.17;;;21.33;;
18653;SDS011;9456;47.824;16.228;2023-01-28T03:53:46;36.57;;;21.33;;
18653;SDS011;9456;47.824;16.228;2023-01-28T03:56:15;35.60;;;20.67;;
18653;SDS011;9456;47.824;16.228;2023-01-28T03:58:44;34.20;;;22.13;;
18653;SDS011;9456;47.824;16.228;2023-01-28T04:01:13;32.87;;;21.37;;
18653;SDS011;9456;47.824;16.228;2023-01-28T04:03:42;33.67;;;20.40;;
18653;SDS011;9456;47.824;16.228;2023-01-28T04:06:11;31.70;;;20.87;;
18653;SDS011;9456;47.824;16.228;2023-01-28T04:08:40;34.43;;;20.90;;
18653;SDS011;9456;47.824;16.228;2023-01-28T04:11:10;38.13;;;21.13;;
18653;SDS011;9456;47.824;16.228;2023-01-28T04:13:41;39.33;;;21.40;;
18653;SDS011;9456;47.824;16.228;2023-01-28T04:16:11;39.43;;;23.33;;
18653;SDS011;9456;47.824;16.228;2023-01-28T04:18:41;39.40;;;22.80;;
18653;SDS011;9456;47.824;16.228;2023-01-28T04:21:10;39.30;;;22.43;;
18653;SDS011;9456;47.824;16.228;2023-01-28T04:23:39;37.83;;;21.07;;
18653;SDS011;9456;47.824;16.228;2023-01-28T04:26:08;40.87;;;24.20;;
18653;SDS011;9456;47.824;16.228;2023-01-28T04:28:37;37.83;;;23.03;;
18653;SDS011;9456;47.824;16.228;2023-01-28T04:31:06;36.40;;;21.77;;
18653;SDS011;9456;47.824;16.228;2023-01-28T04:33:35;38.37;;;22.10;;
18653;SDS011;9456;47.824;16.228;2023-01-28T04:36:06;36.40;;;22.20;;
18653;SDS011;9456;47.824;16.228;2023-01-28T04:38:36;33.90;;;21.47;;
18653;SDS011;9456;47.824;16.228;2023-01-28T04:41:05;38.17;;;22.93;;
18653;SDS011;9456;47.824;16.228;2023-01-28T04:43:34;37.90;;;22.80;;
18653;SDS011;9456;47.824;16.228;2023-01-28T04:46:04;41.50;;;21.73;;
18653;SDS011;9456;47.824;16.228;2023-01-28T04:48:34;38.47;;;21.67;;
18653;SDS011;9456;47.824;16.228;2023-01-28T04:51:03;34.50;;;21.73;;
18653;SDS011;9456;47.824;16.228;2023-01-28T04:53:32;36.07;;;20.97;;
18653;SDS011;9456;47.824;16.228;2023-01-28T04:56:01;35.20;;;20.77;;
18653;SDS011;9456;47.824;16.228;2023-01-28T04:58:30;36.37;;;22.37;;
18653;SDS011;9456;47.824;16.228;2023-01-28T05:00:59;38.87;;;22.03;;
18653;SDS011;9456;47.824;16.228;2023-01-28T05:03:28;36.80;;;21.70;;
18653;SDS011;9456;47.824;16.228;2023-01-28T05:05:57;33.13;;;20.90;;
18653;SDS011;9456;47.824;16.228;2023-01-28T05:08:26;34.43;;;20.80;;
18653;SDS011;9456;47.824;16.228;2023-01-28T05:10:55;36.03;;;21.30;;
18653;SDS011;9456;47.824;16.228;2023-01-28T05:13:24;37.37;;;22.00;;
18653;SDS011;9456;47.824;16.228;2023-01-28T05:15:53;35.30;;;22.47;;
18653;SDS011;9456;47.824;16.228;2023-01-28T05:18:23;38.53;;;22.00;;
18653;SDS011;9456;47.824;16.228;2023-01-28T05:20:52;39.00;;;20.83;;
18653;SDS011;9456;47.824;16.228;2023-01-28T05:23:21;33.07;;;20.37;;
18653;SDS011;9456;47.824;16.228;2023-01-28T05:25:50;30.63;;;20.27;;
18653;SDS011;9456;47.824;16.228;2023-01-28T05:28:19;32.70;;;19.97;;
18653;SDS011;9456;47.824;16.228;2023-01-28T05:30:48;33.20;;;20.00;;
18653;SDS011;9456;47.824;16.228;2023-01-28T05:33:17;30.47;;;19.27;;
18653;SDS011;9456;47.824;16.228;2023-01-28T05:35:46;29.67;;;19.37;;
18653;SDS011;9456;47.824;16.228;2023-01-28T05:41:01;30.97;;;19.17;;
18653;SDS011;9456;47.824;16.228;2023-01-28T05:43:30;30.77;;;18.37;;
18653;SDS011;9456;47.824;16.228;2023-01-28T05:45:59;32.23;;;19.10;;
18653;SDS011;9456;47.824;16.228;2023-01-28T05:48:28;30.03;;;19.20;;
18653;SDS011;9456;47.824;16.228;2023-01-28T05:50:57;31.47;;;20.60;;
18653;SDS011;9456;47.824;16.228;2023-01-28T05:53:27;30.07;;;17.70;;
18653;SDS011;9456;47.824;16.228;2023-01-28T05:55:56;30.13;;;18.83;;
18653;SDS011;9456;47.824;16.228;2023-01-28T05:58:25;30.70;;;17.47;;
18653;SDS011;9456;47.824;16.228;2023-01-28T06:00:54;31.97;;;18.47;;
18653;SDS011;9456;47.824;16.228;2023-01-28T06:03:23;26.93;;;16.87;;
18653;SDS011;9456;47.824;16.228;2023-01-28T06:05:55;29.73;;;18.90;;
18653;SDS011;9456;47.824;16.228;2023-01-28T06:08:24;29.70;;;18.30;;
18653;SDS011;9456;47.824;16.228;2023-01-28T06:10:53;29.77;;;18.80;;
18653;SDS011;9456;47.824;16.228;2023-01-28T06:13:22;32.63;;;18.80;;
18653;SDS011;9456;47.824;16.228;2023-01-28T06:15:51;35.53;;;21.03;;
18653;SDS011;9456;47.824;16.228;2023-01-28T06:18:20;33.13;;;18.23;;
18653;SDS011;9456;47.824;16.228;2023-01-28T06:20:49;31.37;;;19.10;;
18653;SDS011;9456;47.824;16.228;2023-01-28T06:23:18;31.37;;;19.27;;
18653;SDS011;9456;47.824;16.228;2023-01-28T06:25:47;32.00;;;18.70;;
18653;SDS011;9456;47.824;16.228;2023-01-28T06:28:21;32.87;;;18.33;;
18653;SDS011;9456;47.824;16.228;2023-01-28T06:30:51;29.17;;;17.80;;
18653;SDS011;9456;47.824;16.228;2023-01-28T06:33:20;31.20;;;19.10;;
18653;SDS011;9456;47.824;16.228;2023-01-28T06:35:49;33.80;;;20.23;;
18653;SDS011;9456;47.824;16.228;2023-01-28T06:38:18;29.53;;;17.93;;
18653;SDS011;9456;47.824;16.228;2023-01-28T06:40:50;30.87;;;19.13;;
18653;SDS011;9456;47.824;16.228;2023-01-28T06:43:19;29.43;;;17.93;;
18653;SDS011;9456;47.824;16.228;2023-01-28T06:45:49;29.93;;;18.67;;
18653;SDS011;9456;47.824;16.228;2023-01-28T06:48:18;29.23;;;17.50;;
18653;SDS011;9456;47.824;16.228;2023-01-28T06:50:47;29.77;;;17.20;;
18653;SDS011;9456;47.824;16.228;2023-01-28T06:53:17;32.33;;;18.83;;
18653;SDS011;9456;47.824;16.228;2023-01-28T06:55:45;27.27;;;17.80;;
18653;SDS011;9456;47.824;16.228;2023-01-28T06:58:14;29.73;;;18.87;;
18653;SDS011;9456;47.824;16.228;2023-01-28T07:00:43;29.17;;;18.77;;
18653;SDS011;9456;47.824;16.228;2023-01-28T07:03:15;29.60;;;18.00;;
18653;SDS011;9456;47.824;16.228;2023-01-28T07:05:44;32.07;;;18.60;;
18653;SDS011;9456;47.824;16.228;2023-01-28T07:08:13;34.67;;;18.97;;
18653;SDS011;9456;47.824;16.228;2023-01-28T07:10:43;29.90;;;17.47;;
18653;SDS011;9456;47.824;16.228;2023-01-28T07:13:12;29.33;;;19.00;;
18653;SDS011;9456;47.824;16.228;2023-01-28T07:15:41;27.73;;;16.30;;
18653;SDS011;9456;47.824;16.228;2023-01-28T07:18:10;29.73;;;17.53;;
18653;SDS011;9456;47.824;16.228;2023-01-28T07:20:39;27.83;;;17.93;;
18653;SDS011;9456;47.824;16.228;2023-01-28T07:23:08;28.83;;;16.80;;
18653;SDS011;9456;47.824;16.228;2023-01-28T07:25:37;27.83;;;16.20;;
18653;SDS011;9456;47.824;16.228;2023-01-28T07:28:06;29.43;;;17.63;;
18653;SDS011;9456;47.824;16.228;2023-01-28T07:30:35;25.77;;;16.50;;
18653;SDS011;9456;47.824;16.228;2023-01-28T07:33:04;29.30;;;16.70;;
18653;SDS011;9456;47.824;16.228;2023-01-28T07:35:33;58.40;;;36.60;;
18653;SDS011;9456;47.824;16.228;2023-01-28T07:38:02;31.10;;;19.33;;
18653;SDS011;9456;47.824;16.228;2023-01-28T07:40:31;34.87;;;25.30;;
18653;SDS011;9456;47.824;16.228;2023-01-28T07:45:48;34.10;;;19.73;;
18653;SDS011;9456;47.824;16.228;2023-01-28T07:48:17;33.47;;;19.27;;
18653;SDS011;9456;47.824;16.228;2023-01-28T07:50:46;31.57;;;17.83;;
18653;SDS011;9456;47.824;16.228;2023-01-28T07:53:16;31.77;;;18.33;;
18653;SDS011;9456;47.824;16.228;2023-01-28T07:55:45;31.10;;;18.53;;
18653;SDS011;9456;47.824;16.228;2023-01-28T07:58:14;30.47;;;18.67;;
18653;SDS011;9456;47.824;16.228;2023-01-28T08:00:43;32.43;;;19.20;;
18653;SDS011;9456;47.824;16.228;2023-01-28T08:03:13;26.90;;;17.37;;
18653;SDS011;9456;47.824;16.228;2023-01-28T08:05:43;28.00;;;17.47;;
18653;SDS011;9456;47.824;16.228;2023-01-28T08:08:10;26.33;;;17.70;;
18653;SDS011;9456;47.824;16.228;2023-01-28T08:10:39;34.17;;;18.90;;
18653;SDS011;9456;47.824;16.228;2023-01-28T08:13:09;27.27;;;17.07;;
18653;SDS011;9456;47.824;16.228;2023-01-28T08:15:38;26.93;;;16.03;;
18653;SDS011;9456;47.824;16.228;2023-01-28T08:18:07;24.23;;;14.57;;
18653;SDS011;9456;47.824;16.228;2023-01-28T08:20:36;21.73;;;14.40;;
18653;SDS011;9456;47.824;16.228;2023-01-28T08:23:06;23.87;;;15.43;;
18653;SDS011;9456;47.824;16.228;2023-01-28T08:25:36;25.20;;;15.97;;
18653;SDS011;9456;47.824;16.228;2023-01-28T08:28:05;24.67;;;14.63;;
18653;SDS011;9456;47.824;16.228;2023-01-28T08:30:34;22.87;;;13.73;;
18653;SDS011;9456;47.824;16.228;2023-01-28T08:33:04;23.73;;;15.33;;
18653;SDS011;9456;47.824;16.228;2023-01-28T08:35:33;25.97;;;15.80;;
18653;SDS011;9456;47.824;16.228;2023-01-28T08:38:02;24.03;;;15.67;;
18653;SDS011;9456;47.824;16.228;2023-01-28T08:40:31;24.77;;;15.67;;
18653;SDS011;9456;47.824;16.228;2023-01-28T08:43:00;25.10;;;15.57;;
18653;SDS011;9456;47.824;16.228;2023-01-28T08:45:34;25.80;;;15.03;;
18653;SDS011;9456;47.824;16.228;2023-01-28T08:48:03;22.10;;;15.03;;
18653;SDS011;9456;47.824;16.228;2023-01-28T08:50:33;27.67;;;17.17;;
18653;SDS011;9456;47.824;16.228;2023-01-28T08:53:12;27.13;;;16.87;;
18653;SDS011;9456;47.824;16.228;2023-01-28T08:55:41;27.17;;;16.53;;
18653;SDS011;9456;47.824;16.228;2023-01-28T08:58:11;28.70;;;16.97;;
18653;SDS011;9456;47.824;16.228;2023-01-28T09:00:40;27.37;;;16.43;;
18653;SDS011;9456;47.824;16.228;2023-01-28T09:03:09;24.80;;;16.33;;
18653;SDS011;9456;47.824;16.228;2023-01-28T09:05:38;25.87;;;15.73;;
18653;SDS011;9456;47.824;16.228;2023-01-28T09:08:08;25.77;;;15.57;;
18653;SDS011;9456;47.824;16.228;2023-01-28T09:10:36;27.67;;;16.60;;
18653;SDS011;9456;47.824;16.228;2023-01-28T09:13:05;26.47;;;16.13;;
18653;SDS011;9456;47.824;16.228;2023-01-28T09:15:36;23.57;;;14.80;;
18653;SDS011;9456;47.824;16.228;2023-01-28T09:18:05;23.23;;;15.40;;
18653;SDS011;9456;47.824;16.228;2023-01-28T09:20:34;25.23;;;15.33;;
18653;SDS011;9456;47.824;16.228;2023-01-28T09:23:03;24.30;;;14.87;;
18653;SDS011;9456;47.824;16.228;2023-01-28T09:25:32;21.60;;;14.10;;
18653;SDS011;9456;47.824;16.228;2023-01-28T09:28:01;23.77;;;14.77;;
18653;SDS011;9456;47.824;16.228;2023-01-28T09:30:31;20.80;;;14.63;;
18653;SDS011;9456;47.824;16.228;2023-01-28T09:32:59;23.33;;;15.07;;
18653;SDS011;9456;47.824;16.228;2023-01-28T09:35:28;23.27;;;14.13;;
18653;SDS011;9456;47.824;16.228;2023-01-28T09:37:58;20.47;;;13.80;;
18653;SDS011;9456;47.824;16.228;2023-01-28T09:40:29;23.17;;;14.13;;
18653;SDS011;9456;47.824;16.228;2023-01-28T09:43:03;19.77;;;12.97;;
18653;SDS011;9456;47.824;16.228;2023-01-28T09:45:35;20.87;;;13.03;;
18653;SDS011;9456;47.824;16.228;2023-01-28T09:50:44;20.73;;;12.43;;
18653;SDS011;9456;47.824;16.228;2023-01-28T09:53:16;18.60;;;12.20;;
18653;SDS011;9456;47.824;16.228;2023-01-28T09:55:44;19.77;;;13.27;;
18653;SDS011;9456;47.824;16.228;2023-01-28T09:58:13;23.00;;;12.80;;
18653;SDS011;9456;47.824;16.228;2023-01-28T10:00:44;18.30;;;12.33;;
18653;SDS011;9456;47.824;16.228;2023-01-28T10:03:17;17.60;;;12.60;;
18653;SDS011;9456;47.824;16.228;2023-01-28T10:06:15;17.40;;;11.80;;
18653;SDS011;9456;47.824;16.228;2023-01-28T10:11:45;19.13;;;11.97;;
18653;SDS011;9456;47.824;16.228;2023-01-28T10:14:19;15.33;;;11.00;;
18653;SDS011;9456;47.824;16.228;2023-01-28T10:16:51;18.37;;;11.50;;
18653;SDS011;9456;47.824;16.228;2023-01-28T10:19:20;17.37;;;12.13;;
18653;SDS011;9456;47.824;16.228;2023-01-28T10:21:48;22.07;;;13.90;;
18653;SDS011;9456;47.824;16.228;2023-01-28T10:24:17;23.67;;;13.87;;
18653;SDS011;9456;47.824;16.228;2023-01-28T10:26:46;15.50;;;11.77;;
18653;SDS011;9456;47.824;16.228;2023-01-28T10:29:16;18.37;;;12.03;;
18653;SDS011;9456;47.824;16.228;2023-01-28T10:31:46;15.37;;;10.50;;
18653;SDS011;9456;47.824;16.228;2023-01-28T10:34:15;16.20;;;11.80;;
18653;SDS011;9456;47.824;16.228;2023-01-28T10:36:44;15.13;;;10.07;;
18653;SDS011;9456;47.824;16.228;2023-01-28T10:39:13;17.63;;;11.70;;
18653;SDS011;9456;47.824;16.228;2023-01-28T10:41:43;14.87;;;10.57;;
18653;SDS011;9456;47.824;16.228;2023-01-28T10:44:14;18.97;;;11.43;;
18653;SDS011;9456;47.824;16.228;2023-01-28T10:46:44;16.93;;;11.23;;
18653;SDS011;9456;47.824;16.228;2023-01-28T10:49:15;16.07;;;10.53;;
18653;SDS011;9456;47.824;16.228;2023-01-28T10:51:43;16.93;;;10.67;;
18653;SDS011;9456;47.824;16.228;2023-01-28T10:54:19;15.60;;;11.07;;
18653;SDS011;9456;47.824;16.228;2023-01-28T10:56:48;17.83;;;10.30;;
18653;SDS011;9456;47.824;16.228;2023-01-28T10:59:19;13.40;;;9.80;;
18653;SDS011;9456;47.824;16.228;2023-01-28T11:01:49;14.50;;;10.07;;
18653;SDS011;9456;47.824;16.228;2023-01-28T11:04:19;16.83;;;10.67;;
18653;SDS011;9456;47.824;16.228;2023-01-28T11:06:55;15.47;;;10.07;;
18653;SDS011;9456;47.824;16.228;2023-01-28T11:09:24;15.30;;;11.07;;
18653;SDS011;9456;47.824;16.228;2023-01-28T11:11:53;17.30;;;11.07;;
18653;SDS011;9456;47.824;16.228;2023-01-28T11:14:23;14.40;;;9.53;;
18653;SDS011;9456;47.824;16.228;2023-01-28T11:16:52;17.43;;;11.73;;
18653;SDS011;9456;47.824;16.228;2023-01-28T11:19:21;17.90;;;12.27;;
18653;SDS011;9456;47.824;16.228;2023-01-28T11:21:51;18.40;;;12.80;;
18653;SDS011;9456;47.824;16.228;2023-01-28T11:24:21;20.80;;;13.30;;
18653;SDS011;9456;47.824;16.228;2023-01-28T11:26:50;19.37;;;13.20;;
18653;SDS011;9456;47.824;16.228;2023-01-28T11:29:21;20.20;;;13.23;;
18653;SDS011;9456;47.824;16.228;2023-01-28T11:31:52;53.03;;;26.93;;
18653;SDS011;9456;47.824;16.228;2023-01-28T11:34:24;90.67;;;47.30;;
18653;SDS011;9456;47.824;16.228;2023-01-28T11:36:51;43.13;;;24.13;;
18653;SDS011;9456;47.824;16.228;2023-01-28T11:39:20;19.37;;;15.13;;
18653;SDS011;9456;47.824;16.228;2023-01-28T11:41:49;25.33;;;17.57;;
18653;SDS011;9456;47.824;16.228;2023-01-28T11:44:19;30.93;;;18.23;;
18653;SDS011;9456;47.824;16.228;2023-01-28T11:46:51;21.60;;;14.30;;
18653;SDS011;9456;47.824;16.228;2023-01-28T11:49:27;31.83;;;21.03;;
18653;SDS011;9456;47.824;16.228;2023-01-28T11:54:38;21.57;;;14.50;;
18653;SDS011;9456;47.824;16.228;2023-01-28T11:57:18;17.33;;;11.73;;
18653;SDS011;9456;47.824;16.228;2023-01-28T12:06:23;14.77;;;10.37;;
18653;SDS011;9456;47.824;16.228;2023-01-28T12:08:56;15.57;;;10.00;;
18653;SDS011;9456;47.824;16.228;2023-01-28T12:11:27;17.17;;;11.97;;
18653;SDS011;9456;47.824;16.228;2023-01-28T12:14:18;17.73;;;12.13;;
18653;SDS011;9456;47.824;16.228;2023-01-28T12:16:56;19.77;;;13.30;;
18653;SDS011;9456;47.824;16.228;2023-01-28T12:19:39;19.60;;;13.27;;
18653;SDS011;9456;47.824;16.228;2023-01-28T12:22:22;19.50;;;14.20;;
18653;SDS011;9456;47.824;16.228;2023-01-28T12:24:58;17.07;;;11.40;;
18653;SDS011;9456;47.824;16.228;2023-01-28T12:27:42;21.43;;;13.57;;
18653;SDS011;9456;47.824;16.228;2023-01-28T12:30:15;23.60;;;15.63;;
18653;SDS011;9456;47.824;16.228;2023-01-28T12:32:51;22.50;;;13.47;;
18653;SDS011;9456;47.824;16.228;2023-01-28T12:35:25;18.67;;;12.70;;
18653;SDS011;9456;47.824;16.228;2023-01-28T12:38:07;20.10;;;13.37;;
18653;SDS011;9456;47.824;16.228;2023-01-28T12:40:43;20.30;;;12.47;;
18653;SDS011;9456;47.824;16.228;2023-01-28T12:43:16;18.80;;;12.53;;
18653;SDS011;9456;47.824;16.228;2023-01-28T12:45:45;18.90;;;12.27;;
18653;SDS011;9456;47.824;16.228;2023-01-28T12:48:15;18.70;;;11.87;;
18653;SDS011;9456;47.824;16.228;2023-01-28T12:50:45;16.73;;;12.07;;
18653;SDS011;9456;47.824;16.228;2023-01-28T12:53:22;19.37;;;12.37;;
18653;SDS011;9456;47.824;16.228;2023-01-28T12:55:53;17.53;;;12.27;;
18653;SDS011;9456;47.824;16.228;2023-01-28T12:58:23;19.10;;;12.97;;
18653;SDS011;9456;47.824;16.228;2023-01-28T13:00:52;17.07;;;11.83;;
18653;SDS011;9456;47.824;16.228;2023-01-28T13:03:24;17.03;;;11.97;;
18653;SDS011;9456;47.824;16.228;2023-01-28T13:05:51;19.13;;;12.53;;
18653;SDS011;9456;47.824;16.228;2023-01-28T13:08:21;21.53;;;14.60;;
18653;SDS011;9456;47.824;16.228;2023-01-28T13:10:49;22.40;;;15.27;;
18653;SDS011;9456;47.824;16.228;2023-01-28T13:13:19;22.37;;;13.63;;
18653;SDS011;9456;47.824;16.228;2023-01-28T13:15:48;19.47;;;13.33;;
18653;SDS011;9456;47.824;16.228;2023-01-28T13:18:30;18.27;;;12.17;;
18653;SDS011;9456;47.824;16.228;2023-01-28T13:21:00;34.87;;;18.87;;
18653;SDS011;9456;47.824;16.228;2023-01-28T13:23:37;40.97;;;21.13;;
18653;SDS011;9456;47.824;16.228;2023-01-28T13:26:10;29.50;;;17.20;;
18653;SDS011;9456;47.824;16.228;2023-01-28T13:28:51;56.50;;;24.93;;
18653;SDS011;9456;47.824;16.228;2023-01-28T13:31:21;26.03;;;15.60;;
18653;SDS011;9456;47.824;16.228;2023-01-28T13:34:00;21.73;;;14.30;;
18653;SDS011;9456;47.824;16.228;2023-01-28T13:36:29;24.63;;;14.97;;
18653;SDS011;9456;47.824;16.228;2023-01-28T13:38:59;26.53;;;15.83;;
18653;SDS011;9456;47.824;16.228;2023-01-28T13:41:39;28.03;;;18.77;;
18653;SDS011;9456;47.824;16.228;2023-01-28T13:44:18;28.07;;;18.33;;
18653;SDS011;9456;47.824;16.228;2023-01-28T13:46:47;25.13;;;17.43;;
18653;SDS011;9456;47.824;16.228;2023-01-28T13:49:17;26.83;;;16.93;;
18653;SDS011;9456;47.824;16.228;2023-01-28T13:51:49;27.50;;;17.23;;
18653;SDS011;9456;47.824;16.228;2023-01-28T13:54:21;29.93;;;18.33;;
18653;SDS011;9456;47.824;16.228;2023-01-28T13:56:54;30.23;;;17.67;;
18653;SDS011;9456;47.824;16.228;2023-01-28T13:59:27;32.27;;;18.23;;
18653;SDS011;9456;47.824;16.228;2023-01-28T14:08:27;26.87;;;15.53;;
18653;SDS011;9456;47.824;16.228;2023-01-28T14:11:11;26.37;;;16.83;;
18653;SDS011;9456;47.824;16.228;2023-01-28T14:14:01;31.97;;;15.90;;
18653;SDS011;9456;47.824;16.228;2023-01-28T14:16:54;21.57;;;14.17;;
18653;SDS011;9456;47.824;16.228;2023-01-28T14:19:25;22.60;;;13.73;;
18653;SDS011;9456;47.824;16.228;2023-01-28T14:21:53;21.47;;;12.83;;
18653;SDS011;9456;47.824;16.228;2023-01-28T14:24:22;27.20;;;15.87;;
18653;SDS011;9456;47.824;16.228;2023-01-28T14:26:54;19.07;;;12.97;;
18653;SDS011;9456;47.824;16.228;2023-01-28T14:29:27;21.00;;;13.93;;
18653;SDS011;9456;47.824;16.228;2023-01-28T14:32:07;19.70;;;14.00;;
18653;SDS011;9456;47.824;16.228;2023-01-28T14:34:40;20.73;;;13.53;;
18653;SDS011;9456;47.824;16.228;2023-01-28T14:37:14;19.00;;;12.80;;
18653;SDS011;9456;47.824;16.228;2023-01-28T14:39:47;21.60;;;13.73;;
18653;SDS011;9456;47.824;16.228;2023-01-28T14:42:19;17.30;;;11.60;;
18653;SDS011;9456;47.824;16.228;2023-01-28T14:44:50;18.70;;;12.57;;
18653;SDS011;9456;47.824;16.228;2023-01-28T14:50:33;16.33;;;12.03;;
18653;SDS011;9456;47.824;16.228;2023-01-28T14:53:28;19.27;;;13.07;;
18653;SDS011;9456;47.824;16.228;2023-01-28T14:56:07;21.53;;;15.23;;
18653;SDS011;9456;47.824;16.228;2023-01-28T14:58:38;24.50;;;15.60;;
18653;SDS011;9456;47.824;16.228;2023-01-28T15:01:17;25.87;;;17.30;;
18653;SDS011;9456;47.824;16.228;2023-01-28T15:03:49;47.33;;;26.73;;
18653;SDS011;9456;47.824;16.228;2023-01-28T15:06:22;27.80;;;18.67;;
18653;SDS011;9456;47.824;16.228;2023-01-28T15:08:51;18.17;;;11.93;;
18653;SDS011;9456;47.824;16.228;2023-01-28T15:11:26;19.20;;;14.33;;
18653;SDS011;9456;47.824;16.228;2023-01-28T15:13:55;22.17;;;14.30;;
18653;SDS011;9456;47.824;16.228;2023-01-28T15:16:25;22.47;;;16.07;;